Time;durP1;ratioP1;P1;durP2;ratioP2;P2;SDS_P1;SDS_P2;PMS_P1;PMS_P2;Temp;Humidity;BMP_temperature;BMP_pressure;BME280_temperature;BME280_humidity;BME280_pressure;Samples;Min_cycle;Max_cycle;Signal;HPM_P1;HPM_P2
2021/07/16 00:02:10;;;;;;;20.47;7.63;;;;;;;19.06;75.73;100103.49;125671;1093;22793;-60
2021/07/16 00:04:41;;;;;;;19.40;7.67;;;;;;;19.05;76.05;100113.30;125848;1093;22771;-61
2021/07/16 00:07:12;;;;;;;17.08;8.10;;;;;;;19.02;76.39;100117.20;125672;1093;26346;-62
2021/07/16 00:09:44;;;;;;;19.23;8.30;;;;;;;19.00;76.66;100095.11;125727;1093;22767;-59
2021/07/16 00:12:15;;;;;;;16.50;7.70;;;;;;;18.99;76.87;100101.32;125738;1093;22778;-59
2021/07/16 00:14:47;;;;;;;17.88;7.85;;;;;;;18.97;76.77;100109.59;126118;1093;22854;-60
2021/07/16 00:17:19;;;;;;;16.78;7.65;;;;;;;18.92;77.02;100111.20;125736;1092;22775;-60
2021/07/16 00:19:51;;;;;;;21.25;8.50;;;;;;;18.90;76.86;100104.55;125886;1093;22793;-60
2021/07/16 00:22:22;;;;;;;20.15;8.08;;;;;;;18.90;77.10;100088.35;125725;1093;22800;-59
2021/07/16 00:24:54;;;;;;;19.00;6.90;;;;;;;18.88;77.36;100098.67;125712;1094;22800;-62
2021/07/16 00:27:26;;;;;;;21.77;8.38;;;;;;;18.80;77.58;100092.13;125730;1093;22743;-60
2021/07/16 00:29:59;;;;;;;20.17;8.33;;;;;;;18.77;77.59;100099.62;125769;1093;22965;-59
2021/07/16 00:32:32;;;;;;;18.27;8.83;;;;;;;18.75;77.71;100102.22;125743;1093;22800;-60
2021/07/16 00:35:04;;;;;;;15.60;7.53;;;;;;;18.75;77.62;100105.05;125853;1093;27218;-60
2021/07/16 00:37:37;;;;;;;17.93;8.63;;;;;;;18.71;77.60;100113.09;125755;1093;25849;-60
2021/07/16 00:40:12;;;;;;;20.38;7.30;;;;;;;18.70;77.60;100122.12;125738;1093;25880;-59
2021/07/16 00:42:44;;;;;;;16.70;7.67;;;;;;;18.69;77.57;100121.34;125759;1093;22858;-62
2021/07/16 00:45:17;;;;;;;16.33;7.50;;;;;;;18.70;77.69;100133.42;125815;1093;22800;-60
2021/07/16 00:47:49;;;;;;;19.63;8.23;;;;;;;18.68;77.87;100136.03;125807;1093;22797;-59
2021/07/16 00:50:24;;;;;;;19.73;7.63;;;;;;;18.62;78.11;100127.64;125723;1093;22800;-60
2021/07/16 00:52:57;;;;;;;26.30;8.17;;;;;;;18.60;78.12;100133.08;125776;1093;28420;-58
2021/07/16 00:55:31;;;;;;;26.87;8.67;;;;;;;18.52;77.70;100132.91;125816;1093;24460;-60
2021/07/16 00:58:02;;;;;;;19.10;7.53;;;;;;;18.48;77.96;100146.59;125806;1093;22776;-60
2021/07/16 01:00:35;;;;;;;21.53;9.17;;;;;;;18.49;78.25;100153.02;125681;1093;22800;-59
2021/07/16 01:03:07;;;;;;;21.20;8.20;;;;;;;18.51;78.38;100156.08;125767;1092;26708;-59
2021/07/16 01:05:39;;;;;;;18.27;7.80;;;;;;;18.51;78.37;100134.23;125798;1093;22803;-59
2021/07/16 01:08:11;;;;;;;20.00;9.08;;;;;;;18.47;78.97;100130.95;125764;1092;22804;-60
2021/07/16 01:10:43;;;;;;;20.17;8.47;;;;;;;18.43;79.23;100129.70;125888;1093;22755;-60
2021/07/16 01:13:14;;;;;;;25.60;9.27;;;;;;;18.41;79.32;100112.52;125707;1093;22796;-60
2021/07/16 01:15:49;;;;;;;20.55;9.15;;;;;;;18.40;79.50;100108.14;125806;1093;25852;-61
2021/07/16 01:18:21;;;;;;;18.43;8.47;;;;;;;18.37;79.62;100109.97;125795;1093;22960;-61
2021/07/16 01:20:56;;;;;;;19.50;9.43;;;;;;;18.38;79.59;100105.09;125733;1093;26723;-59
2021/07/16 01:23:27;;;;;;;22.50;9.70;;;;;;;18.36;79.43;100094.33;125758;1092;22770;-60
2021/07/16 01:25:59;;;;;;;17.87;8.43;;;;;;;18.35;79.79;100092.79;125744;1093;22770;-61
2021/07/16 01:28:31;;;;;;;21.03;9.55;;;;;;;18.31;79.63;100083.12;126007;1092;26279;-60
2021/07/16 01:31:03;;;;;;;16.80;8.10;;;;;;;18.27;79.70;100083.41;125949;1093;22782;-60
2021/07/16 01:33:37;;;;;;;18.75;9.25;;;;;;;18.24;79.63;100070.37;125710;1093;24433;-60
2021/07/16 01:36:09;;;;;;;18.73;9.73;;;;;;;18.22;80.16;100072.97;126029;1093;22767;-60
2021/07/16 01:38:40;;;;;;;20.15;9.40;;;;;;;18.19;80.31;100071.20;125857;1092;25494;-59
2021/07/16 01:41:12;;;;;;;20.37;10.07;;;;;;;18.17;80.18;100073.80;125591;1093;26360;-60
2021/07/16 01:43:43;;;;;;;20.23;9.60;;;;;;;18.16;80.61;100075.11;125624;1093;22801;-60
2021/07/16 01:46:15;;;;;;;19.27;9.47;;;;;;;18.16;80.41;100077.94;125854;1093;22801;-60
2021/07/16 01:48:50;;;;;;;19.75;9.30;;;;;;;18.18;80.45;100088.70;125665;1093;22793;-59
2021/07/16 01:51:22;;;;;;;21.07;9.67;;;;;;;18.16;80.37;100089.23;125727;1093;27648;-60
2021/07/16 01:53:53;;;;;;;19.97;10.10;;;;;;;18.17;80.45;100099.23;125685;1093;27370;-62
2021/07/16 01:56:26;;;;;;;19.40;8.85;;;;;;;18.19;80.39;100095.86;125741;1092;22811;-59
2021/07/16 01:58:58;;;;;;;23.03;9.67;;;;;;;18.21;80.27;100099.68;125794;1092;22767;-59
2021/07/16 02:01:30;;;;;;;16.67;8.37;;;;;;;18.23;80.49;100096.34;125694;1093;23500;-59
2021/07/16 02:04:03;;;;;;;18.00;7.98;;;;;;;18.23;80.10;100094.26;125721;1093;22777;-57
2021/07/16 02:06:35;;;;;;;18.33;9.30;;;;;;;18.22;80.33;100101.22;125685;1093;22775;-61
2021/07/16 02:09:08;;;;;;;20.88;10.48;;;;;;;18.22;80.32;100086.33;125896;1093;22778;-58
2021/07/16 02:11:42;;;;;;;21.45;10.95;;;;;;;18.23;80.30;100096.34;125796;1092;22811;-62
2021/07/16 02:14:15;;;;;;;21.03;10.57;;;;;;;18.21;79.98;100096.08;125926;1093;22800;-59
2021/07/16 02:16:46;;;;;;;20.40;9.20;;;;;;;18.19;80.21;100093.80;125821;1092;27180;-60
2021/07/16 02:19:18;;;;;;;21.45;10.40;;;;;;;18.20;80.03;100091.75;125747;1093;22827;-61
2021/07/16 02:21:49;;;;;;;19.17;9.33;;;;;;;18.21;79.95;100087.61;125691;1092;22800;-61
2021/07/16 02:24:21;;;;;;;20.67;9.23;;;;;;;18.20;80.42;100091.75;125725;1092;22797;-59
2021/07/16 02:26:53;;;;;;;23.63;9.80;;;;;;;18.20;80.33;100086.09;125675;1093;22847;-60
2021/07/16 02:29:25;;;;;;;21.55;9.40;;;;;;;18.18;80.66;100080.98;125692;1093;27208;-61
2021/07/16 02:32:00;;;;;;;21.60;8.47;;;;;;;18.16;81.02;100089.23;125742;1093;22785;-58
2021/07/16 02:34:32;;;;;;;18.93;8.87;;;;;;;18.15;80.52;100079.22;125925;1092;22777;-60
2021/07/16 02:37:04;;;;;;;21.67;9.33;;;;;;;18.16;80.66;100083.59;125706;1092;22793;-59
2021/07/16 02:39:36;;;;;;;24.27;10.17;;;;;;;18.17;81.12;100089.98;125846;1093;22771;-59
2021/07/16 02:42:09;;;;;;;25.67;10.00;;;;;;;18.17;80.52;100087.16;125823;1092;26283;-59
2021/07/16 02:44:43;;;;;;;23.60;10.03;;;;;;;18.15;81.07;100078.45;125702;1093;22770;-61
2021/07/16 02:47:15;;;;;;;23.70;9.98;;;;;;;18.11;80.92;100087.24;125691;1093;22770;-59
2021/07/16 02:49:47;;;;;;;19.67;8.60;;;;;;;18.10;81.17;100088.55;125764;1093;22770;-59
2021/07/16 02:52:19;;;;;;;26.43;10.13;;;;;;;18.13;81.26;100086.70;125737;1092;22770;-60
2021/07/16 02:54:50;;;;;;;25.27;9.23;;;;;;;18.12;80.96;100077.48;125708;1093;22855;-60
2021/07/16 02:57:22;;;;;;;21.10;9.17;;;;;;;18.11;81.17;100081.59;125662;1092;22825;-61
2021/07/16 02:59:54;;;;;;;19.90;8.77;;;;;;;18.11;80.96;100078.00;125719;1093;27374;-60
2021/07/16 03:02:29;;;;;;;19.77;8.73;;;;;;;18.12;81.03;100088.78;125970;1093;22723;-58
2021/07/16 03:05:01;;;;;;;23.00;9.57;;;;;;;18.12;80.86;100079.54;125817;1093;22797;-56
2021/07/16 03:07:33;;;;;;;19.50;8.70;;;;;;;18.10;80.85;100077.25;125684;1092;25849;-59
2021/07/16 03:10:08;;;;;;;22.20;9.20;;;;;;;18.11;80.87;100080.82;125679;1093;22767;-59
2021/07/16 03:12:40;;;;;;;21.50;8.55;;;;;;;18.11;80.96;100084.41;125739;1093;22794;-57
2021/07/16 03:15:15;;;;;;;16.97;8.83;;;;;;;18.11;81.16;100075.94;125814;1093;23460;-59
2021/07/16 03:17:46;;;;;;;27.75;9.65;;;;;;;18.12;81.24;100074.66;125721;1093;24471;-59
2021/07/16 03:20:19;;;;;;;25.03;10.43;;;;;;;18.10;81.41;100071.61;125668;1093;27173;-59
2021/07/16 03:22:51;;;;;;;20.63;8.40;;;;;;;18.12;81.73;100065.41;125777;1093;22796;-60
2021/07/16 03:25:24;;;;;;;19.17;8.07;;;;;;;18.12;81.71;100066.18;125651;1093;27676;-59
2021/07/16 03:27:57;;;;;;;19.13;8.87;;;;;;;18.12;81.76;100069.01;125694;1092;22770;-62
2021/07/16 03:30:30;;;;;;;18.63;7.97;;;;;;;18.13;81.51;100070.52;125734;1093;27217;-60
2021/07/16 03:33:02;;;;;;;17.25;7.55;;;;;;;18.17;81.82;100082.27;125738;1093;22800;-60
2021/07/16 03:35:33;;;;;;;19.23;8.13;;;;;;;18.21;82.02;100082.73;125759;1093;22771;-61
2021/07/16 03:38:05;;;;;;;19.43;8.90;;;;;;;18.25;81.95;100086.01;125728;1093;22770;-60
2021/07/16 03:40:52;;;;;;;21.73;7.80;;;;;;;18.28;82.01;100093.42;125731;1093;22808;-59
2021/07/16 03:43:23;;;;;;;22.23;8.23;;;;;;;18.31;82.05;100097.25;125742;1093;22795;-60
2021/07/16 03:45:55;;;;;;;19.70;8.80;;;;;;;18.34;81.81;100096.93;125936;1093;22808;-59
2021/07/16 03:48:26;;;;;;;22.60;7.73;;;;;;;18.38;82.17;100097.38;125838;1093;22824;-58
2021/07/16 03:50:59;;;;;;;16.30;8.08;;;;;;;18.42;82.37;100100.66;125667;1093;22775;-59
2021/07/16 03:53:31;;;;;;;16.75;7.70;;;;;;;18.46;82.08;100094.72;125723;1093;26245;-60
2021/07/16 03:56:02;;;;;;;15.27;7.20;;;;;;;18.50;82.24;100101.59;126006;1093;27207;-59
2021/07/16 03:58:34;;;;;;;20.68;8.05;;;;;;;18.54;82.42;100107.70;125542;1093;22772;-59
2021/07/16 04:01:06;;;;;;;15.93;7.37;;;;;;;18.59;81.98;100106.09;125604;1092;22774;-59
2021/07/16 04:03:38;;;;;;;16.07;6.93;;;;;;;18.63;82.23;100102.94;125609;1093;22842;-59
2021/07/16 04:06:10;;;;;;;18.10;7.30;;;;;;;18.66;82.05;100111.13;125715;1093;22770;-61
2021/07/16 04:08:43;;;;;;;16.93;6.80;;;;;;;18.68;82.22;100105.70;125651;1093;22813;-59
2021/07/16 04:11:15;;;;;;;17.57;7.43;;;;;;;18.70;81.96;100105.92;125654;1093;22779;-60
2021/07/16 04:13:47;;;;;;;17.10;7.47;;;;;;;18.72;82.07;100108.97;125882;1093;24359;-59
2021/07/16 04:16:18;;;;;;;15.23;7.17;;;;;;;18.74;82.01;100111.25;125651;1093;22824;-64
2021/07/16 04:18:50;;;;;;;17.13;8.03;;;;;;;18.76;82.28;100108.65;125718;1093;22770;-59
2021/07/16 04:21:22;;;;;;;17.25;7.53;;;;;;;18.78;82.03;100126.61;125700;1092;27167;-61
2021/07/16 04:23:53;;;;;;;13.03;6.53;;;;;;;18.81;82.03;100121.95;125618;1093;22771;-64
2021/07/16 04:26:25;;;;;;;13.70;7.17;;;;;;;18.85;82.06;100130.88;125686;1092;27213;-60
2021/07/16 04:28:56;;;;;;;23.23;7.83;;;;;;;18.88;82.10;100122.07;125711;1092;22923;-58
2021/07/16 04:31:27;;;;;;;17.40;7.33;;;;;;;18.90;82.22;100130.01;126007;1092;22797;-55
2021/07/16 04:33:59;;;;;;;15.28;7.33;;;;;;;18.93;82.27;100140.26;125656;1093;22800;-59
2021/07/16 04:36:31;;;;;;;12.70;6.20;;;;;;;18.94;82.08;100133.28;125670;1092;27217;-56
2021/07/16 04:39:06;;;;;;;19.73;7.90;;;;;;;18.96;82.25;100131.45;125672;1092;22836;-57
2021/07/16 04:41:38;;;;;;;18.00;6.90;;;;;;;19.00;82.28;100133.95;125621;1092;22770;-60
2021/07/16 04:44:10;;;;;;;16.90;7.60;;;;;;;19.01;82.45;100124.17;125732;1093;24477;-58
2021/07/16 04:46:42;;;;;;;17.35;7.60;;;;;;;19.04;82.30;100132.34;125688;1093;22802;-59
2021/07/16 04:49:14;;;;;;;17.03;6.90;;;;;;;19.09;82.06;100125.06;125641;1092;27179;-58
2021/07/16 04:51:46;;;;;;;17.75;7.90;;;;;;;19.16;82.28;100130.84;125647;1093;24194;-59
2021/07/16 04:54:17;;;;;;;20.63;7.37;;;;;;;19.26;82.16;100134.77;125750;1093;22778;-59
2021/07/16 04:56:49;;;;;;;13.68;7.30;;;;;;;19.37;82.38;100136.66;125649;1093;22821;-59
2021/07/16 04:59:20;;;;;;;17.55;7.05;;;;;;;19.47;81.99;100131.36;125675;1093;22797;-60
2021/07/16 05:01:52;;;;;;;14.10;6.63;;;;;;;19.57;81.96;100136.05;125802;1092;24634;-61
2021/07/16 05:04:24;;;;;;;15.73;6.95;;;;;;;19.64;81.42;100148.77;125601;1093;22778;-59
2021/07/16 05:06:55;;;;;;;14.15;7.28;;;;;;;19.67;81.20;100151.30;125486;1092;22797;-59
2021/07/16 05:09:27;;;;;;;15.33;6.58;;;;;;;19.72;81.46;100155.33;125630;1093;22771;-59
2021/07/16 05:11:58;;;;;;;14.90;6.68;;;;;;;19.74;81.04;100156.29;125655;1093;22770;-58
2021/07/16 05:14:30;;;;;;;14.35;6.10;;;;;;;19.77;81.07;100165.77;125850;1093;22851;-60
2021/07/16 05:17:02;;;;;;;16.93;6.90;;;;;;;19.79;80.82;100169.59;125707;1092;31339;-59
2021/07/16 05:19:33;;;;;;;18.38;6.53;;;;;;;19.82;81.05;100182.66;125588;1093;22770;-58
2021/07/16 05:22:04;;;;;;;15.68;6.90;;;;;;;19.84;81.02;100182.88;125441;1092;28732;-59
2021/07/16 05:24:37;;;;;;;17.58;7.35;;;;;;;19.86;80.86;100183.09;125618;1093;22771;-59
2021/07/16 05:27:10;;;;;;;15.05;6.40;;;;;;;19.86;81.08;100190.84;125662;1093;24438;-60
2021/07/16 05:29:42;;;;;;;14.37;6.77;;;;;;;19.89;81.06;100199.01;125688;1093;22853;-61
2021/07/16 05:32:14;;;;;;;25.83;6.15;;;;;;;19.91;80.87;100204.89;125687;1092;27249;-59
2021/07/16 05:34:45;;;;;;;14.00;6.43;;;;;;;19.93;80.76;100207.17;125802;1093;22794;-59
2021/07/16 05:37:17;;;;;;;15.25;6.53;;;;;;;19.94;80.82;100211.55;125702;1093;22806;-58
2021/07/16 05:39:48;;;;;;;15.35;6.90;;;;;;;19.94;80.13;100206.65;125359;1093;24596;-59
2021/07/16 05:42:20;;;;;;;14.30;6.83;;;;;;;19.94;80.50;100211.55;125649;1093;22770;-60
2021/07/16 05:44:51;;;;;;;17.98;6.90;;;;;;;19.97;80.42;100208.38;125686;1093;22772;-59
2021/07/16 05:47:26;;;;;;;13.15;6.33;;;;;;;19.98;80.32;100211.98;125736;1093;22816;-59
2021/07/16 05:49:57;;;;;;;15.77;6.20;;;;;;;19.96;80.12;100206.09;125697;1093;22825;-61
2021/07/16 05:52:32;;;;;;;15.08;5.95;;;;;;;19.94;80.10;100197.38;125690;1093;23722;-58
2021/07/16 05:55:04;;;;;;;15.63;6.00;;;;;;;19.92;80.30;100205.66;125657;1093;28624;-60
2021/07/16 05:57:36;;;;;;;15.95;6.60;;;;;;;19.90;80.51;100202.61;126016;1093;22748;-59
2021/07/16 06:00:10;;;;;;;14.70;6.08;;;;;;;19.87;80.31;100204.45;125692;1093;22770;-59
2021/07/16 06:02:42;;;;;;;16.80;6.90;;;;;;;19.84;80.45;100199.13;125769;1093;22807;-62
2021/07/16 06:05:14;;;;;;;15.60;6.60;;;;;;;19.83;80.59;100201.19;125671;1093;22797;-58
2021/07/16 06:07:45;;;;;;;12.35;5.68;;;;;;;19.83;80.49;100198.36;125775;1093;22767;-57
2021/07/16 06:10:17;;;;;;;12.83;6.03;;;;;;;19.84;80.48;100204.80;125712;1093;27207;-59
2021/07/16 06:12:49;;;;;;;17.13;6.83;;;;;;;19.84;80.48;100202.70;125892;1093;22778;-59
2021/07/16 06:15:20;;;;;;;16.23;6.88;;;;;;;19.83;80.57;100200.42;125728;1093;22794;-59
2021/07/16 06:17:52;;;;;;;17.73;6.45;;;;;;;19.82;80.77;100196.81;125713;1093;22797;-59
2021/07/16 06:20:23;;;;;;;18.73;6.00;;;;;;;19.83;80.90;100198.36;125690;1093;22805;-58
2021/07/16 06:22:54;;;;;;;17.00;7.65;;;;;;;19.85;80.20;100192.14;125739;1093;27344;-58
2021/07/16 06:25:25;;;;;;;14.98;7.28;;;;;;;19.86;80.57;100202.17;125697;1093;24435;-60
2021/07/16 06:27:57;;;;;;;15.95;7.60;;;;;;;19.87;80.47;100201.63;125694;1093;22770;-60
2021/07/16 06:30:28;;;;;;;16.23;7.88;;;;;;;19.92;80.67;100191.50;125612;1093;22777;-61
2021/07/16 06:32:59;;;;;;;20.43;8.60;;;;;;;19.96;80.80;100191.93;125678;1093;22806;-60
2021/07/16 06:35:31;;;;;;;18.45;6.98;;;;;;;20.00;80.70;100195.20;125897;1093;22870;-60
2021/07/16 06:38:02;;;;;;;17.05;7.70;;;;;;;20.03;80.54;100194.86;125697;1093;27214;-60
2021/07/16 06:40:34;;;;;;;17.95;7.23;;;;;;;20.08;80.85;100187.55;125707;1093;22778;-58
2021/07/16 06:43:09;;;;;;;19.30;8.10;;;;;;;20.13;80.80;100187.44;125668;1093;22800;-61
2021/07/16 06:45:41;;;;;;;15.93;7.80;;;;;;;20.17;80.59;100187.86;125861;1093;22854;-61
2021/07/16 06:48:12;;;;;;;19.30;8.38;;;;;;;20.23;80.74;100181.36;125743;1092;22780;-61
2021/07/16 06:50:44;;;;;;;19.55;8.33;;;;;;;20.29;80.64;100170.66;125729;1093;22794;-59
2021/07/16 06:53:15;;;;;;;15.55;7.73;;;;;;;20.29;80.22;100157.25;125682;1093;22787;-60
2021/07/16 06:55:46;;;;;;;17.18;8.28;;;;;;;20.33;80.79;100173.92;125754;1093;22770;-60
2021/07/16 06:58:18;;;;;;;18.70;8.23;;;;;;;20.39;80.33;100168.89;125729;1093;24477;-60
2021/07/16 07:00:52;;;;;;;19.25;8.18;;;;;;;20.45;80.54;100173.13;125681;1093;22770;-59
2021/07/16 07:03:25;;;;;;;18.85;8.00;;;;;;;20.51;80.32;100178.66;125719;1091;22767;-59
2021/07/16 07:05:57;;;;;;;17.77;8.30;;;;;;;20.57;80.38;100179.30;125745;1093;22901;-61
2021/07/16 07:08:28;;;;;;;21.30;8.63;;;;;;;20.63;80.03;100189.21;125702;1093;24174;-59
2021/07/16 07:11:00;;;;;;;19.63;8.40;;;;;;;20.71;80.56;100189.31;125803;1092;22800;-59
2021/07/16 07:13:31;;;;;;;20.58;8.28;;;;;;;20.80;80.08;100188.83;125696;1092;24323;-59
2021/07/16 07:16:03;;;;;;;18.65;7.75;;;;;;;20.87;79.59;100205.18;125749;1093;22752;-60
2021/07/16 07:18:36;;;;;;;19.25;7.85;;;;;;;20.92;79.37;100196.52;125746;1093;27217;-60
2021/07/16 07:21:07;;;;;;;17.00;8.15;;;;;;;21.01;79.44;100206.64;125777;1093;22778;-60
2021/07/16 07:23:39;;;;;;;17.23;7.98;;;;;;;21.11;79.40;100204.88;125705;1093;22814;-60
2021/07/16 07:26:10;;;;;;;21.60;7.87;;;;;;;21.21;79.50;100211.59;125653;1093;22823;-59
2021/07/16 07:28:42;;;;;;;17.40;8.30;;;;;;;21.32;79.07;100207.72;125770;1093;23390;-60
2021/07/16 07:31:13;;;;;;;18.25;7.90;;;;;;;21.41;78.66;100205.16;125693;1093;22988;-61
2021/07/16 07:33:45;;;;;;;21.23;8.63;;;;;;;21.51;78.88;100197.67;125675;1093;25874;-60
2021/07/16 07:36:16;;;;;;;22.28;9.15;;;;;;;21.62;78.45;100193.78;125660;1093;22825;-59
2021/07/16 07:38:48;;;;;;;17.43;8.60;;;;;;;21.71;78.71;100196.86;125680;1093;23506;-61
2021/07/16 07:41:19;;;;;;;21.13;8.55;;;;;;;21.81;78.20;100197.11;125581;1092;22770;-59
2021/07/16 07:43:53;;;;;;;18.33;8.45;;;;;;;21.89;77.82;100192.26;125705;1092;22803;-62
2021/07/16 07:46:27;;;;;;;20.38;8.83;;;;;;;21.95;77.49;100195.73;125638;1093;22751;-59
2021/07/16 07:48:58;;;;;;;20.95;8.85;;;;;;;22.04;78.12;100211.48;125669;1093;22787;-60
2021/07/16 07:51:32;;;;;;;16.40;8.30;;;;;;;22.12;77.37;100206.63;125710;1093;23289;-61
2021/07/16 07:54:03;;;;;;;17.18;8.20;;;;;;;22.18;77.27;100205.13;125750;1093;24439;-60
2021/07/16 07:56:35;;;;;;;16.58;8.70;;;;;;;22.26;76.74;100205.18;125667;1093;26245;-61
2021/07/16 07:59:09;;;;;;;25.10;9.13;;;;;;;22.32;76.84;100203.70;125686;1093;22773;-60
2021/07/16 08:01:40;;;;;;;22.65;9.55;;;;;;;22.38;76.74;100197.84;125811;1093;25745;-60
2021/07/16 08:04:12;;;;;;;17.58;8.20;;;;;;;22.50;76.87;100213.24;125679;1093;25874;-59
2021/07/16 08:06:43;;;;;;;22.53;8.70;;;;;;;22.62;76.89;100214.45;125646;1093;26721;-60
2021/07/16 08:09:14;;;;;;;15.28;8.50;;;;;;;22.74;76.28;100217.73;125683;1092;26584;-58
2021/07/16 08:11:46;;;;;;;17.48;7.98;;;;;;;22.86;76.21;100222.52;125667;1093;26283;-60
2021/07/16 08:14:18;;;;;;;22.53;8.38;;;;;;;22.98;75.83;100220.06;125838;1093;22767;-60
2021/07/16 08:16:49;;;;;;;21.33;8.78;;;;;;;23.15;75.57;100223.14;125756;1093;22779;-61
2021/07/16 08:19:21;;;;;;;17.53;8.15;;;;;;;23.27;74.73;100221.45;125788;1093;23312;-60
2021/07/16 08:21:56;;;;;;;18.40;7.78;;;;;;;23.31;74.94;100214.05;125748;1093;22928;-60
2021/07/16 08:24:29;;;;;;;17.57;7.23;;;;;;;23.40;74.29;100221.30;125734;1093;22794;-60
2021/07/16 08:27:00;;;;;;;16.53;7.83;;;;;;;23.47;74.57;100211.21;125665;1093;23846;-60
2021/07/16 08:29:31;;;;;;;18.58;7.30;;;;;;;23.51;73.46;100211.59;125670;1093;22776;-60
2021/07/16 08:32:03;;;;;;;18.35;8.43;;;;;;;23.54;73.13;100213.31;125683;1093;24471;-59
2021/07/16 08:34:35;;;;;;;23.73;8.68;;;;;;;23.58;73.57;100205.14;125709;1093;22787;-61
2021/07/16 08:37:07;;;;;;;17.45;7.90;;;;;;;23.69;73.48;100210.46;125760;1093;24873;-60
2021/07/16 08:39:39;;;;;;;17.33;7.98;;;;;;;23.79;73.29;100211.40;125738;1093;22864;-60
2021/07/16 08:42:14;;;;;;;17.45;7.60;;;;;;;23.89;72.84;100210.25;125652;1093;22770;-61
2021/07/16 08:44:47;;;;;;;16.93;7.78;;;;;;;24.00;72.33;100209.82;125786;1093;22800;-60
2021/07/16 08:47:22;;;;;;;17.30;7.75;;;;;;;24.09;71.82;100205.66;125979;1093;24618;-60
2021/07/16 08:49:55;;;;;;;15.45;7.00;;;;;;;24.19;71.79;100203.72;125679;1093;22801;-60
2021/07/16 08:52:27;;;;;;;17.93;7.30;;;;;;;24.33;71.74;100210.73;125717;1093;22770;-60
2021/07/16 08:55:00;;;;;;;15.03;6.83;;;;;;;24.37;71.47;100210.33;125681;1093;25874;-61
2021/07/16 08:57:32;;;;;;;19.60;8.15;;;;;;;24.45;71.45;100197.55;125664;1093;24795;-60
2021/07/16 09:00:05;;;;;;;17.38;6.90;;;;;;;24.51;71.29;100200.95;125749;1093;28002;-60
2021/07/16 09:02:50;;;;;;;15.00;6.93;;;;;;;24.59;70.18;100198.05;126000;1093;22867;-60
2021/07/16 09:05:36;;;;;;;13.98;5.98;;;;;;;24.66;70.16;100200.13;125665;1093;22784;-61
2021/07/16 09:08:15;;;;;;;20.52;5.85;;;;;;;24.75;69.98;100203.13;125923;1092;24435;-60
2021/07/16 09:10:55;;;;;;;16.45;6.85;;;;;;;24.89;69.69;100198.67;125992;1093;23539;-61
2021/07/16 09:13:28;;;;;;;17.63;7.20;;;;;;;24.94;69.42;100214.07;125740;1093;23012;-61
2021/07/16 09:16:01;;;;;;;16.40;6.23;;;;;;;24.99;69.25;100215.95;125835;1093;26062;-60
2021/07/16 09:18:34;;;;;;;13.78;5.90;;;;;;;25.07;69.17;100215.90;125796;1093;22999;-60
2021/07/16 09:21:11;;;;;;;12.70;4.80;;;;;;;25.17;69.33;100203.26;125794;1093;22771;-60
2021/07/16 09:23:45;;;;;;;13.70;5.45;;;;;;;25.25;67.66;100221.10;125744;1092;22896;-60
2021/07/16 09:26:24;;;;;;;15.03;5.13;;;;;;;25.29;67.16;100218.59;125773;1093;22779;-60
2021/07/16 09:28:58;;;;;;;16.93;6.20;;;;;;;25.30;67.47;100217.27;125858;1093;22847;-59
2021/07/16 09:31:41;;;;;;;15.28;7.38;;;;;;;25.35;67.00;100224.07;125930;1092;22763;-60
2021/07/16 09:34:14;;;;;;;15.07;6.20;;;;;;;25.37;67.22;100218.52;125704;1093;22824;-60
2021/07/16 09:36:47;;;;;;;16.20;6.95;;;;;;;25.44;66.93;100212.80;125745;1093;25989;-60
2021/07/16 09:39:25;;;;;;;14.58;7.00;;;;;;;25.48;66.80;100215.23;125730;1093;22861;-60
2021/07/16 09:42:07;;;;;;;11.63;6.48;;;;;;;25.54;66.72;100215.75;125783;1093;22770;-60
2021/07/16 09:44:44;;;;;;;16.05;6.08;;;;;;;25.58;66.34;100213.24;125705;1093;25874;-59
2021/07/16 09:47:17;;;;;;;13.28;6.65;;;;;;;25.69;66.58;100209.91;125800;1093;24434;-60
2021/07/16 09:50:07;;;;;;;16.90;6.23;;;;;;;25.82;65.81;100223.14;125814;1093;24436;-61
2021/07/16 09:52:39;;;;;;;14.88;6.38;;;;;;;25.90;66.16;100218.87;125722;1093;22803;-60
2021/07/16 09:55:15;;;;;;;14.25;5.93;;;;;;;25.99;64.78;100226.77;125748;1093;22867;-60
2021/07/16 09:57:48;;;;;;;17.65;5.98;;;;;;;26.08;65.44;100226.14;125894;1092;25874;-62
2021/07/16 10:00:22;;;;;;;13.53;5.93;;;;;;;26.16;65.28;100226.81;125707;1093;22790;-60
2021/07/16 10:02:56;;;;;;;15.07;6.57;;;;;;;26.18;65.07;100234.80;125805;1093;27233;-62
2021/07/16 10:05:36;;;;;;;11.73;5.20;;;;;;;26.19;64.30;100225.66;125699;1093;25877;-61
2021/07/16 10:08:09;;;;;;;12.63;5.83;;;;;;;26.19;64.57;100224.89;125803;1093;22776;-59
2021/07/16 10:10:43;;;;;;;11.85;5.25;;;;;;;26.22;63.86;100223.70;125847;1093;26261;-61
2021/07/16 10:13:16;;;;;;;11.70;5.53;;;;;;;26.29;63.98;100228.59;125690;1093;23630;-59
2021/07/16 10:15:51;;;;;;;17.28;4.93;;;;;;;26.32;63.24;100227.42;125785;1093;26245;-60
2021/07/16 10:18:25;;;;;;;18.35;5.28;;;;;;;26.38;63.28;100230.78;125846;1093;22871;-62
2021/07/16 10:20:57;;;;;;;15.50;5.15;;;;;;;26.45;63.11;100224.95;125814;1093;25986;-60
2021/07/16 10:23:31;;;;;;;10.95;5.13;;;;;;;26.59;62.06;100221.75;125746;1093;24589;-60
2021/07/16 10:26:05;;;;;;;12.60;5.05;;;;;;;26.68;61.74;100221.04;125989;1093;27490;-58
2021/07/16 10:28:41;;;;;;;13.88;4.73;;;;;;;26.72;60.79;100216.44;125701;1093;22931;-60
2021/07/16 10:31:40;;;;;;;11.05;4.33;;;;;;;26.78;60.56;100224.75;125752;1093;25989;-60
2021/07/16 10:34:38;;;;;;;13.33;4.88;;;;;;;26.84;60.69;100214.55;125468;1095;22781;-59
2021/07/16 10:37:13;;;;;;;11.77;5.10;;;;;;;26.95;61.33;100224.72;125656;1095;22771;-60
2021/07/16 10:39:49;;;;;;;14.23;5.20;;;;;;;26.99;59.38;100222.94;125470;1095;22799;-60
2021/07/16 10:42:47;;;;;;;10.13;4.75;;;;;;;26.93;59.25;100221.69;125695;1096;22804;-60
2021/07/16 10:45:37;;;;;;;12.23;4.98;;;;;;;26.94;58.59;100223.22;125593;1096;22888;-60
2021/07/16 10:48:22;;;;;;;12.20;5.25;;;;;;;26.94;59.54;100223.95;125432;1096;22855;-61
2021/07/16 10:50:55;;;;;;;13.05;4.45;;;;;;;27.07;60.01;100214.22;125658;1096;22960;-61
2021/07/16 10:53:41;;;;;;;10.95;4.45;;;;;;;27.22;59.48;100205.40;125603;1096;22893;-60
2021/07/16 10:56:18;;;;;;;9.75;4.40;;;;;;;27.37;57.94;100218.77;125713;1096;22779;-60
2021/07/16 10:58:50;;;;;;;13.68;4.63;;;;;;;27.37;57.87;100213.80;125801;1096;22880;-60
2021/07/16 11:01:41;;;;;;;13.27;4.13;;;;;;;27.41;57.66;100210.48;125675;1095;22920;-61
2021/07/16 11:04:35;;;;;;;13.85;4.78;;;;;;;27.45;57.98;100219.40;125695;1096;27182;-61
2021/07/16 11:07:06;;;;;;;13.05;3.85;;;;;;;27.44;56.55;100217.90;125722;1096;22875;-61
2021/07/16 11:09:45;;;;;;;16.10;3.58;;;;;;;27.41;56.53;100211.25;125648;1095;22789;-62
2021/07/16 11:12:35;;;;;;;14.88;3.78;;;;;;;27.42;55.43;100215.61;125661;1093;22861;-61
2021/07/16 11:15:07;;;;;;;;;;;;;;;27.46;56.16;100201.59;125725;1092;22800;-59
2021/07/16 11:17:39;;;;;;;9.70;4.37;;;;;;;27.51;56.00;100200.56;125775;1093;21460;-63
2021/07/16 11:20:13;;;;;;;12.53;4.83;;;;;;;27.50;55.96;100198.30;125755;1092;22767;-60
2021/07/16 11:22:59;;;;;;;17.60;4.73;;;;;;;27.53;54.89;100194.22;125785;1093;22797;-60
2021/07/16 11:25:31;;;;;;;14.55;4.43;;;;;;;27.53;55.58;100200.72;125928;1093;22794;-61
2021/07/16 11:28:09;;;;;;;11.30;3.95;;;;;;;27.59;55.09;100201.19;125770;1093;25530;-63
2021/07/16 11:30:43;;;;;;;14.30;4.05;;;;;;;27.60;53.64;100205.58;125815;1091;28560;-61
2021/07/16 11:33:15;;;;;;;16.60;3.90;;;;;;;27.60;54.54;100199.84;127084;1093;22867;-61
2021/07/16 11:35:53;;;;;;;10.70;3.63;;;;;;;27.56;53.79;100201.64;125715;1093;27654;-60
2021/07/16 11:38:24;;;;;;;15.98;4.33;;;;;;;27.60;54.09;100199.08;125902;1093;27183;-60